createdAt,value
2018-03-29T00:01:14.520Z,0.60
2018-03-29T00:03:42.003Z,0.70
2018-03-29T00:06:09.564Z,0.90
2018-03-29T00:08:37.112Z,0.60
2018-03-29T00:11:05.389Z,0.70
2018-03-29T00:13:33.665Z,0.50
2018-03-29T00:16:01.154Z,0.60
2018-03-29T00:18:28.646Z,0.63
2018-03-29T00:20:56.138Z,0.80
2018-03-29T00:23:23.684Z,0.70
2018-03-29T00:25:51.250Z,0.67
2018-03-29T00:28:18.745Z,0.50
2018-03-29T00:30:46.245Z,0.50
2018-03-29T00:33:14.483Z,0.83
2018-03-29T00:35:41.967Z,0.70
2018-03-29T00:38:09.467Z,0.63
2018-03-29T00:40:36.982Z,0.70
2018-03-29T00:43:05.277Z,0.80
2018-03-29T00:45:33.533Z,0.60
2018-03-29T00:48:01.787Z,0.60
2018-03-29T00:50:29.271Z,0.50
2018-03-29T00:52:57.556Z,0.60
2018-03-29T00:55:25.802Z,0.70
2018-03-29T00:57:53.294Z,0.60
2018-03-29T01:00:20.782Z,0.60
2018-03-29T01:02:48.290Z,0.70
2018-03-29T01:05:16.552Z,0.70
2018-03-29T01:07:44.128Z,0.70
2018-03-29T01:10:12.405Z,0.70
2018-03-29T01:12:40.686Z,1.60
2018-03-29T01:15:08.178Z,0.70
2018-03-29T01:17:35.651Z,1.10
2018-03-29T01:20:03.157Z,0.73
2018-03-29T01:22:30.639Z,0.93
2018-03-29T01:24:58.165Z,0.80
2018-03-29T01:27:25.643Z,0.80
2018-03-29T01:29:53.137Z,0.70
2018-03-29T01:32:32.717Z,1.00
2018-03-29T01:35:00.975Z,0.70
2018-03-29T01:37:29.245Z,0.90
2018-03-29T01:39:56.731Z,1.17
2018-03-29T01:42:24.314Z,1.17
2018-03-29T01:44:51.793Z,1.20
2018-03-29T01:47:19.310Z,0.97
2018-03-29T01:49:46.802Z,0.97
2018-03-29T01:52:14.290Z,0.90
2018-03-29T01:54:42.552Z,0.90
2018-03-29T01:57:10.160Z,0.93
2018-03-29T01:59:37.677Z,0.80
2018-03-29T02:02:05.936Z,0.83
2018-03-29T02:04:33.572Z,1.27
2018-03-29T02:07:01.230Z,0.90
2018-03-29T02:09:28.720Z,1.17
2018-03-29T02:11:56.309Z,1.30
2018-03-29T02:14:23.796Z,1.10
2018-03-29T02:16:51.315Z,1.10
2018-03-29T02:19:19.573Z,1.10
2018-03-29T02:21:47.874Z,1.30
2018-03-29T02:24:15.359Z,1.30
2018-03-29T02:26:42.846Z,1.03
2018-03-29T02:29:10.349Z,1.07
2018-03-29T02:31:37.848Z,1.17
2018-03-29T02:34:05.585Z,1.10
2018-03-29T02:36:33.091Z,1.17
2018-03-29T02:39:01.437Z,1.23
2018-03-29T02:41:29.742Z,1.13
2018-03-29T02:43:58.031Z,1.70
2018-03-29T02:46:26.337Z,1.53
2018-03-29T02:48:53.833Z,1.20
2018-03-29T02:51:21.361Z,1.40
2018-03-29T02:53:48.835Z,1.57
2018-03-29T02:56:16.337Z,1.30
2018-03-29T02:58:44.591Z,1.40
2018-03-29T03:01:12.839Z,1.70
2018-03-29T03:03:40.348Z,1.60
2018-03-29T03:06:07.841Z,1.63
2018-03-29T03:08:35.336Z,1.40
2018-03-29T03:11:02.837Z,1.57
2018-03-29T03:13:30.356Z,1.60
2018-03-29T03:15:58.650Z,1.53
2018-03-29T03:18:26.133Z,1.40
2018-03-29T03:20:53.642Z,1.50
2018-03-29T03:23:21.898Z,1.40
2018-03-29T03:25:49.414Z,1.40
2018-03-29T03:28:16.971Z,1.70
2018-03-29T03:30:44.474Z,1.57
2018-03-29T03:33:12.064Z,1.50
2018-03-29T03:35:40.313Z,1.60
2018-03-29T03:38:07.802Z,2.20
2018-03-29T03:40:35.350Z,2.00
2018-03-29T03:43:03.616Z,1.57
2018-03-29T03:45:31.871Z,1.70
2018-03-29T03:47:59.392Z,1.83
2018-03-29T03:50:26.863Z,2.00
2018-03-29T03:52:54.337Z,1.80
2018-03-29T03:55:21.845Z,2.07
2018-03-29T03:57:49.427Z,2.07
2018-03-29T04:00:16.904Z,1.90
2018-03-29T04:02:44.417Z,1.80
2018-03-29T04:05:11.922Z,2.20
2018-03-29T04:07:40.250Z,2.30
2018-03-29T04:10:07.744Z,2.53
2018-03-29T04:12:35.239Z,2.70
2018-03-29T04:15:02.756Z,2.77
2018-03-29T04:17:30.239Z,2.70
2018-03-29T04:19:58.557Z,2.90
2018-03-29T04:22:26.923Z,3.37
2018-03-29T04:24:54.413Z,3.37
2018-03-29T04:27:21.903Z,3.10
2018-03-29T04:29:50.167Z,3.10
2018-03-29T04:32:17.663Z,3.33
2018-03-29T04:34:45.200Z,3.93
2018-03-29T04:37:13.465Z,3.70
2018-03-29T04:39:41.752Z,3.80
2018-03-29T04:42:09.992Z,4.50
2018-03-29T04:44:37.476Z,4.20
2018-03-29T04:47:05.755Z,3.37
2018-03-29T04:49:34.028Z,4.70
2018-03-29T04:52:02.459Z,4.30
2018-03-29T04:54:29.936Z,4.50
2018-03-29T04:56:57.433Z,4.43
2018-03-29T04:59:24.924Z,4.63
2018-03-29T05:01:52.433Z,4.57
2018-03-29T05:04:20.695Z,4.63
2018-03-29T05:06:48.977Z,4.43
2018-03-29T05:09:17.253Z,6.07
2018-03-29T05:11:45.524Z,5.20
2018-03-29T05:14:13.913Z,4.63
2018-03-29T05:16:42.177Z,5.07
2018-03-29T05:19:10.432Z,3.93
2018-03-29T05:21:38.025Z,4.60
2018-03-29T05:24:05.601Z,4.93
2018-03-29T05:26:38.935Z,4.80
2018-03-29T05:29:06.469Z,5.43
2018-03-29T05:31:33.961Z,4.80
2018-03-29T05:34:01.452Z,4.73
2018-03-29T05:36:28.951Z,4.67
2018-03-29T05:38:56.442Z,4.83
2018-03-29T05:41:24.718Z,4.43
2018-03-29T05:43:53.000Z,5.57
2018-03-29T05:46:20.505Z,4.60
2018-03-29T05:48:48.122Z,4.90
2018-03-29T05:51:16.408Z,4.70
2018-03-29T05:53:43.952Z,5.20
2018-03-29T05:56:12.233Z,4.90
2018-03-29T05:58:39.745Z,4.73
2018-03-29T06:01:07.349Z,4.70
2018-03-29T06:03:34.832Z,4.93
2018-03-29T06:06:02.347Z,5.30
2018-03-29T06:08:30.704Z,5.07
2018-03-29T06:10:58.200Z,5.53
2018-03-29T06:13:25.739Z,5.30
2018-03-29T06:15:59.773Z,5.50
2018-03-29T06:18:32.340Z,5.47
2018-03-29T06:21:00.091Z,5.03
2018-03-29T06:23:28.356Z,5.97
2018-03-29T06:25:56.631Z,5.10
2018-03-29T06:28:24.896Z,6.40
2018-03-29T06:30:52.374Z,5.53
2018-03-29T06:33:20.748Z,5.77
2018-03-29T06:35:49.023Z,5.50
2018-03-29T06:38:17.283Z,6.43
2018-03-29T06:40:45.608Z,5.50
2018-03-29T06:43:13.102Z,5.50
2018-03-29T06:45:40.689Z,5.57
2018-03-29T06:48:09.001Z,5.50
2018-03-29T06:50:36.525Z,7.03
2018-03-29T06:53:04.071Z,7.13
2018-03-29T06:55:32.347Z,6.33
2018-03-29T06:58:00.652Z,5.80
2018-03-29T07:00:28.122Z,5.00
2018-03-29T07:02:55.636Z,6.50
2018-03-29T07:05:24.604Z,5.60
2018-03-29T07:07:52.101Z,5.37
2018-03-29T07:10:19.602Z,6.60
2018-03-29T07:12:47.093Z,4.83
2018-03-29T07:15:15.376Z,4.87
2018-03-29T07:17:43.615Z,5.23
2018-03-29T07:20:11.218Z,13.07
2018-03-29T07:22:38.715Z,5.53
2018-03-29T07:25:06.208Z,5.97
2018-03-29T07:27:34.458Z,5.30
2018-03-29T07:30:01.965Z,4.80
2018-03-29T07:32:29.449Z,5.27
2018-03-29T07:35:06.987Z,5.20
2018-03-29T07:37:35.710Z,4.70
2018-03-29T07:40:03.201Z,4.20
2018-03-29T07:42:30.698Z,4.50
2018-03-29T07:44:58.944Z,3.80
2018-03-29T07:47:26.534Z,4.60
2018-03-29T07:49:54.023Z,4.67
2018-03-29T07:52:21.647Z,4.23
2018-03-29T07:54:49.179Z,4.57
2018-03-29T07:57:16.709Z,3.80
2018-03-29T07:59:44.241Z,4.40
2018-03-29T08:02:11.791Z,3.97
2018-03-29T08:04:39.342Z,4.27
2018-03-29T08:07:06.828Z,3.80
2018-03-29T08:09:34.329Z,4.17
2018-03-29T08:12:02.601Z,4.13
2018-03-29T08:14:30.101Z,3.93
2018-03-29T08:16:57.627Z,3.90
2018-03-29T08:19:25.901Z,3.93
2018-03-29T08:21:54.173Z,3.87
2018-03-29T08:24:22.417Z,3.80
2018-03-29T08:26:49.907Z,3.17
2018-03-29T08:29:18.195Z,4.37
2018-03-29T08:31:45.739Z,4.30
2018-03-29T08:34:13.987Z,4.73
2018-03-29T08:36:41.511Z,3.90
2018-03-29T08:39:09.006Z,4.80
2018-03-29T08:41:36.493Z,4.43
2018-03-29T08:44:04.751Z,4.87
2018-03-29T08:46:33.000Z,4.00
2018-03-29T08:49:00.499Z,4.73
2018-03-29T08:51:28.062Z,3.77
2018-03-29T08:53:55.622Z,4.60
2018-03-29T08:56:23.121Z,4.23
2018-03-29T08:58:50.795Z,4.23
2018-03-29T09:01:18.303Z,4.50
2018-03-29T09:03:45.866Z,7.13
2018-03-29T09:06:13.385Z,8.13
2018-03-29T09:08:41.649Z,4.77
2018-03-29T09:11:09.132Z,4.10
2018-03-29T09:13:37.505Z,4.00
2018-03-29T09:16:05.765Z,4.50
2018-03-29T09:18:34.059Z,4.37
2018-03-29T09:21:02.328Z,4.37
2018-03-29T09:23:30.591Z,4.00
2018-03-29T09:25:59.007Z,4.80
2018-03-29T09:28:26.487Z,4.33
2018-03-29T09:30:53.966Z,4.27
2018-03-29T09:33:21.574Z,4.10
2018-03-29T09:35:49.114Z,4.77
2018-03-29T09:38:16.677Z,9.87
2018-03-29T09:40:44.228Z,9.23
2018-03-29T09:43:12.596Z,5.90
2018-03-29T09:45:40.878Z,4.80
2018-03-29T09:48:08.433Z,4.47
2018-03-29T09:50:36.724Z,4.23
2018-03-29T09:53:04.200Z,4.10
2018-03-29T09:55:31.694Z,4.20
2018-03-29T09:57:59.186Z,4.80
2018-03-29T10:00:32.316Z,5.30
2018-03-29T10:02:59.822Z,4.77
2018-03-29T10:05:33.848Z,5.33
2018-03-29T10:08:01.340Z,4.97
2018-03-29T10:10:28.828Z,4.40
2018-03-29T10:12:57.130Z,4.27
2018-03-29T10:15:24.633Z,4.30
2018-03-29T10:17:52.128Z,3.90
2018-03-29T10:20:20.380Z,4.20
2018-03-29T10:22:47.866Z,4.33
2018-03-29T10:25:16.120Z,4.17
2018-03-29T10:27:43.691Z,4.40
2018-03-29T10:30:12.017Z,4.10
2018-03-29T10:32:40.217Z,5.13
2018-03-29T10:35:07.742Z,4.50
2018-03-29T10:37:35.232Z,4.70
2018-03-29T10:40:02.824Z,3.80
2018-03-29T10:42:30.359Z,4.63
2018-03-29T10:44:58.647Z,3.60
2018-03-29T10:47:27.046Z,3.63
2018-03-29T10:49:54.536Z,3.53
2018-03-29T10:52:22.035Z,3.93
2018-03-29T10:54:50.293Z,3.63
2018-03-29T10:57:17.792Z,3.50
2018-03-29T10:59:45.273Z,3.67
2018-03-29T11:02:12.772Z,3.10
2018-03-29T11:04:41.065Z,3.00
2018-03-29T11:07:08.548Z,3.80
2018-03-29T11:09:36.064Z,2.80
2018-03-29T11:12:04.357Z,3.03
2018-03-29T11:14:31.915Z,2.93
2018-03-29T11:16:59.407Z,3.77
2018-03-29T11:19:26.898Z,4.50
2018-03-29T11:21:54.403Z,3.40
2018-03-29T11:24:21.923Z,4.83
2018-03-29T11:26:50.191Z,2.90
2018-03-29T11:29:18.441Z,3.10
2018-03-29T11:31:46.122Z,3.10
2018-03-29T11:34:14.385Z,3.03
2018-03-29T11:36:41.909Z,2.77
2018-03-29T11:39:09.393Z,2.80
2018-03-29T11:41:36.882Z,3.40
2018-03-29T11:44:05.169Z,2.90
2018-03-29T11:46:32.724Z,2.43
2018-03-29T11:49:00.244Z,3.40
2018-03-29T11:51:28.571Z,2.80
2018-03-29T11:53:56.063Z,2.97
2018-03-29T11:56:23.577Z,2.40
2018-03-29T11:58:51.083Z,2.50
2018-03-29T12:01:18.576Z,3.00
2018-03-29T12:03:46.090Z,2.47
2018-03-29T12:06:13.582Z,2.57
2018-03-29T12:08:41.848Z,3.93
2018-03-29T12:11:10.138Z,4.13
2018-03-29T12:13:37.698Z,2.70
2018-03-29T12:16:05.255Z,2.63
2018-03-29T12:18:32.751Z,2.93
2018-03-29T12:21:00.245Z,2.27
2018-03-29T12:23:27.742Z,2.07
2018-03-29T12:25:55.229Z,2.03
2018-03-29T12:28:22.849Z,2.00
2018-03-29T12:30:50.391Z,1.60
2018-03-29T12:33:18.651Z,2.07
2018-03-29T12:35:47.826Z,2.00
2018-03-29T12:38:15.354Z,2.00
2018-03-29T12:40:42.864Z,2.47
2018-03-29T12:43:11.122Z,2.50
2018-03-29T12:45:38.632Z,2.47
2018-03-29T12:48:06.165Z,2.30
2018-03-29T12:50:34.430Z,2.30
2018-03-29T12:53:02.671Z,1.63
2018-03-29T12:55:43.291Z,1.90
2018-03-29T12:58:13.499Z,2.13
2018-03-29T13:00:41.760Z,2.83
2018-03-29T13:03:10.043Z,2.20
2018-03-29T13:05:38.302Z,2.47
2018-03-29T13:08:05.892Z,2.20
2018-03-29T13:10:33.449Z,1.60
2018-03-29T13:13:00.927Z,1.77
2018-03-29T13:15:28.460Z,1.70
2018-03-29T13:17:56.704Z,1.70
2018-03-29T13:20:24.193Z,2.63
2018-03-29T13:22:51.745Z,2.70
2018-03-29T13:25:19.237Z,2.97
2018-03-29T13:27:46.865Z,2.60
2018-03-29T13:30:14.417Z,3.10
2018-03-29T13:32:41.975Z,2.53
2018-03-29T13:35:09.550Z,2.33
2018-03-29T13:37:37.044Z,3.23
2018-03-29T13:40:04.521Z,2.77
2018-03-29T13:42:32.097Z,3.33
2018-03-29T13:45:00.369Z,3.00
2018-03-29T13:47:28.636Z,3.20
2018-03-29T13:49:56.908Z,3.03
2018-03-29T13:52:25.160Z,3.17
2018-03-29T13:54:52.656Z,2.90
2018-03-29T13:57:20.951Z,3.10
2018-03-29T13:59:48.453Z,3.50
2018-03-29T14:02:15.953Z,3.00
2018-03-29T14:04:43.433Z,3.30
2018-03-29T14:07:10.927Z,3.30
2018-03-29T14:09:38.512Z,3.30
2018-03-29T14:12:06.030Z,3.10
2018-03-29T14:14:33.520Z,7.90
2018-03-29T14:17:01.778Z,2.40
2018-03-29T14:19:30.061Z,3.00
2018-03-29T14:21:58.342Z,2.17
2018-03-29T14:24:26.623Z,2.93
2018-03-29T14:26:54.204Z,2.70
2018-03-29T14:29:21.707Z,2.57
2018-03-29T14:31:49.208Z,2.20
2018-03-29T14:34:16.682Z,2.40
2018-03-29T14:36:44.187Z,2.43
2018-03-29T14:39:12.490Z,1.67
2018-03-29T14:41:40.003Z,2.20
2018-03-29T14:44:07.517Z,1.90
2018-03-29T14:46:44.963Z,1.90
2018-03-29T14:49:13.234Z,2.27
2018-03-29T14:51:40.828Z,2.43
2018-03-29T14:54:08.323Z,3.47
2018-03-29T14:56:35.805Z,2.90
2018-03-29T14:59:03.310Z,2.40
2018-03-29T15:01:30.792Z,2.53
2018-03-29T15:03:58.307Z,2.43
2018-03-29T15:06:25.855Z,3.00
2018-03-29T15:08:54.104Z,3.03
2018-03-29T15:11:21.617Z,2.90
2018-03-29T15:13:49.213Z,2.60
2018-03-29T15:16:16.664Z,2.90
2018-03-29T15:18:44.155Z,3.13
2018-03-29T15:21:13.371Z,2.30
2018-03-29T15:23:40.938Z,3.40
2018-03-29T15:26:08.463Z,3.27
2018-03-29T15:28:36.737Z,3.83
2018-03-29T15:31:05.011Z,3.33
2018-03-29T15:33:33.272Z,3.13
2018-03-29T15:36:00.852Z,2.83
2018-03-29T15:38:29.121Z,2.70
2018-03-29T15:40:56.645Z,2.90
2018-03-29T15:43:24.247Z,2.80
2018-03-29T15:45:52.502Z,3.10
2018-03-29T15:48:20.776Z,2.00
2018-03-29T15:50:49.075Z,2.40
2018-03-29T15:53:17.313Z,2.30
2018-03-29T15:55:44.810Z,1.90
2018-03-29T15:58:12.357Z,2.10
2018-03-29T16:00:40.645Z,1.90
2018-03-29T16:03:08.135Z,2.03
2018-03-29T16:05:35.627Z,2.07
2018-03-29T16:08:03.910Z,2.13
2018-03-29T16:10:32.150Z,2.00
2018-03-29T16:12:59.671Z,1.90
2018-03-29T16:15:27.234Z,2.00
2018-03-29T16:17:54.767Z,2.00
2018-03-29T16:20:23.142Z,1.83
2018-03-29T16:22:51.515Z,2.10
2018-03-29T16:25:19.795Z,2.10
2018-03-29T16:27:48.058Z,2.00
2018-03-29T16:30:16.320Z,2.00
2018-03-29T16:32:43.864Z,2.90
2018-03-29T16:35:11.454Z,2.67
2018-03-29T16:37:39.715Z,2.30
2018-03-29T16:40:08.113Z,2.20
2018-03-29T16:42:35.596Z,1.53
2018-03-29T16:45:03.083Z,1.60
2018-03-29T16:47:30.600Z,1.90
2018-03-29T16:49:58.102Z,1.97
2018-03-29T16:52:25.580Z,2.20
2018-03-29T16:54:53.889Z,2.20
2018-03-29T16:57:21.381Z,1.80
2018-03-29T16:59:48.864Z,2.27
2018-03-29T17:02:17.140Z,2.83
2018-03-29T17:04:45.391Z,2.00
2018-03-29T17:07:12.884Z,1.77
2018-03-29T17:09:41.136Z,1.60
2018-03-29T17:12:08.621Z,1.83
2018-03-29T17:14:36.120Z,2.77
2018-03-29T17:17:03.609Z,1.63
2018-03-29T17:19:31.934Z,1.77
2018-03-29T17:21:59.466Z,1.90
2018-03-29T17:24:26.974Z,1.57
2018-03-29T17:26:54.473Z,1.70
2018-03-29T17:29:22.743Z,2.37
2018-03-29T17:31:51.104Z,2.00
2018-03-29T17:34:18.663Z,1.60
2018-03-29T17:36:46.962Z,2.07
2018-03-29T17:39:14.444Z,2.47
2018-03-29T17:41:41.967Z,2.40
2018-03-29T17:44:09.496Z,2.70
2018-03-29T17:46:37.097Z,2.70
2018-03-29T17:49:04.593Z,3.37
2018-03-29T17:51:32.097Z,2.50
2018-03-29T17:54:00.378Z,3.50
2018-03-29T17:56:27.931Z,2.73
2018-03-29T17:58:55.445Z,2.23
2018-03-29T18:01:22.942Z,1.90
2018-03-29T18:03:51.192Z,3.17
2018-03-29T18:06:18.714Z,2.00
2018-03-29T18:08:46.232Z,2.00
2018-03-29T18:11:14.471Z,2.10
2018-03-29T18:13:42.078Z,2.30
2018-03-29T18:16:09.550Z,1.97
2018-03-29T18:18:37.046Z,2.13
2018-03-29T18:21:04.540Z,2.30
2018-03-29T18:23:32.063Z,2.40
2018-03-29T18:26:00.363Z,2.40
2018-03-29T18:28:28.603Z,2.53
2018-03-29T18:30:56.101Z,2.67
2018-03-29T18:33:23.591Z,2.23
2018-03-29T18:35:51.094Z,2.50
2018-03-29T18:38:19.388Z,2.43
2018-03-29T18:40:47.668Z,2.87
2018-03-29T18:43:15.231Z,2.87
2018-03-29T18:45:42.711Z,3.00
2018-03-29T18:48:10.215Z,2.30
2018-03-29T18:50:38.502Z,2.97
2018-03-29T18:53:06.775Z,3.03
2018-03-29T18:55:35.079Z,2.87
2018-03-29T18:58:02.594Z,2.93
2018-03-29T19:00:30.865Z,2.60
2018-03-29T19:02:58.360Z,3.77
2018-03-29T19:05:25.917Z,2.40
2018-03-29T19:07:53.402Z,2.63
2018-03-29T19:10:21.024Z,2.30
2018-03-29T19:12:48.517Z,2.70
2018-03-29T19:15:16.013Z,2.30
2018-03-29T19:17:44.277Z,2.10
2018-03-29T19:20:11.880Z,2.70
2018-03-29T19:22:39.392Z,2.47
2018-03-29T19:25:06.893Z,2.40
2018-03-29T19:27:44.325Z,2.40
2018-03-29T19:30:11.805Z,2.40
2018-03-29T19:32:40.071Z,2.87
2018-03-29T19:35:07.584Z,3.70
2018-03-29T19:37:35.121Z,17.43
2018-03-29T19:40:02.612Z,3.40
2018-03-29T19:42:30.138Z,2.70
2018-03-29T19:44:58.389Z,2.13
2018-03-29T19:47:26.673Z,2.83
2018-03-29T19:49:54.232Z,2.80
2018-03-29T19:52:21.733Z,2.37
2018-03-29T19:54:49.219Z,2.23
2018-03-29T19:57:16.711Z,1.90
2018-03-29T19:59:44.270Z,2.93
2018-03-29T20:02:11.768Z,2.30
2018-03-29T20:04:39.262Z,2.43
2018-03-29T20:07:07.533Z,2.83
2018-03-29T20:09:35.809Z,2.90
2018-03-29T20:12:03.400Z,3.03
2018-03-29T20:14:30.892Z,3.47
2018-03-29T20:16:58.379Z,2.90
2018-03-29T20:19:26.624Z,2.80
2018-03-29T20:21:54.132Z,4.10
2018-03-29T20:24:21.612Z,2.70
2018-03-29T20:26:49.121Z,2.63
2018-03-29T20:29:17.771Z,2.83
2018-03-29T20:31:45.248Z,2.60
2018-03-29T20:34:12.751Z,2.40
2018-03-29T20:36:40.247Z,2.70
2018-03-29T20:39:07.733Z,2.90
2018-03-29T20:41:36.003Z,2.40
2018-03-29T20:44:04.262Z,2.83
2018-03-29T20:46:31.767Z,2.77
2018-03-29T20:48:59.251Z,2.67
2018-03-29T20:51:26.737Z,3.50
2018-03-29T20:53:54.217Z,2.90
2018-03-29T20:56:21.736Z,3.13
2018-03-29T20:58:49.353Z,2.80
2018-03-29T21:01:16.898Z,2.97
2018-03-29T21:03:44.380Z,2.73
2018-03-29T21:06:11.871Z,3.20
2018-03-29T21:08:39.452Z,2.70
2018-03-29T21:11:07.705Z,2.80
2018-03-29T21:13:35.283Z,2.70
2018-03-29T21:16:03.548Z,3.07
2018-03-29T21:18:31.807Z,2.57
2018-03-29T21:21:00.068Z,2.33
2018-03-29T21:23:27.710Z,2.77
2018-03-29T21:25:55.223Z,2.30
2018-03-29T21:28:23.483Z,4.30
2018-03-29T21:30:51.070Z,2.23
2018-03-29T21:33:18.617Z,2.73
2018-03-29T21:35:46.878Z,2.20
2018-03-29T21:38:15.128Z,2.40
2018-03-29T21:40:42.634Z,2.70
2018-03-29T21:43:10.122Z,2.30
2018-03-29T21:45:37.609Z,2.50
2018-03-29T21:48:05.097Z,2.37
2018-03-29T21:50:33.391Z,2.27
2018-03-29T21:53:00.870Z,2.80
2018-03-29T21:55:28.379Z,2.07
2018-03-29T21:57:56.708Z,2.20
2018-03-29T22:00:24.209Z,2.43
2018-03-29T22:02:52.463Z,2.27
2018-03-29T22:05:19.958Z,2.80
2018-03-29T22:07:47.465Z,2.40
2018-03-29T22:10:14.956Z,4.13
2018-03-29T22:12:43.222Z,2.17
2018-03-29T22:15:11.485Z,2.10
2018-03-29T22:17:38.971Z,2.50
2018-03-29T22:20:06.520Z,2.57
2018-03-29T22:22:34.781Z,2.47
2018-03-29T22:25:03.055Z,2.60
2018-03-29T22:27:31.353Z,2.20
2018-03-29T22:29:58.864Z,2.10
2018-03-29T22:32:26.362Z,1.60
2018-03-29T22:34:54.595Z,2.20
2018-03-29T22:37:22.164Z,3.73
2018-03-29T22:39:49.650Z,2.13
2018-03-29T22:42:17.145Z,1.70
2018-03-29T22:44:44.629Z,2.33
2018-03-29T22:47:12.221Z,2.17
2018-03-29T22:49:39.809Z,2.50
2018-03-29T22:52:07.294Z,2.47
2018-03-29T22:54:34.792Z,2.20
2018-03-29T22:57:02.294Z,3.00
2018-03-29T22:59:29.789Z,2.50
2018-03-29T23:01:58.072Z,2.27
2018-03-29T23:04:26.342Z,2.50
2018-03-29T23:06:54.610Z,2.80
2018-03-29T23:09:22.883Z,3.07
2018-03-29T23:11:51.178Z,3.10
2018-03-29T23:14:18.685Z,3.30
2018-03-29T23:16:46.205Z,3.17
2018-03-29T23:19:13.684Z,3.37
2018-03-29T23:21:42.031Z,3.53
2018-03-29T23:24:09.581Z,4.10
2018-03-29T23:26:37.138Z,3.70
2018-03-29T23:29:05.414Z,3.57
2018-03-29T23:31:32.919Z,3.67
2018-03-29T23:34:00.528Z,2.63
2018-03-29T23:36:28.084Z,2.87
2018-03-29T23:38:56.372Z,2.60
2018-03-29T23:41:23.857Z,2.60
2018-03-29T23:43:51.353Z,2.30
2018-03-29T23:46:19.639Z,2.07
2018-03-29T23:48:47.901Z,2.50
2018-03-29T23:51:15.489Z,3.07
2018-03-29T23:53:42.993Z,3.17
2018-03-29T23:56:11.273Z,2.73
2018-03-29T23:58:38.768Z,3.83
